createdAt,value
2023-02-19T00:01:13.431Z,101008.28
2023-02-19T00:03:41.819Z,101000.00
2023-02-19T00:06:11.030Z,100995.25
2023-02-19T00:08:38.831Z,100999.75
2023-02-19T00:11:08.592Z,101001.72
2023-02-19T00:13:40.243Z,101002.19
2023-02-19T00:16:08.498Z,100995.94
2023-02-19T00:18:36.136Z,100987.22
2023-02-19T00:21:03.171Z,100984.03
2023-02-19T00:23:30.095Z,100979.16
2023-02-19T00:26:00.953Z,100997.56
2023-02-19T00:28:29.702Z,100987.44
2023-02-19T00:30:56.206Z,100989.13
2023-02-19T00:33:22.741Z,100990.16
2023-02-19T00:35:49.478Z,101008.38
2023-02-19T00:38:15.963Z,100996.59
2023-02-19T00:40:42.352Z,101001.19
2023-02-19T00:43:08.750Z,100994.16
2023-02-19T00:45:35.645Z,100994.72
2023-02-19T00:48:02.076Z,100995.44
2023-02-19T00:50:28.525Z,100993.28
2023-02-19T00:52:54.933Z,100991.50
2023-02-19T00:55:21.314Z,100990.22
2023-02-19T00:57:47.685Z,100983.66
2023-02-19T01:00:14.372Z,100993.00
2023-02-19T01:02:40.945Z,100975.41
2023-02-19T01:05:08.305Z,100968.91
2023-02-19T01:07:38.689Z,100972.34
2023-02-19T01:10:05.762Z,100968.41
2023-02-19T01:12:32.465Z,100965.97
2023-02-19T01:14:59.032Z,100969.03
2023-02-19T01:17:25.567Z,100964.25
2023-02-19T01:19:52.122Z,100974.31
2023-02-19T01:22:18.542Z,100972.69
2023-02-19T01:24:44.937Z,100972.81
2023-02-19T01:27:11.342Z,100967.94
2023-02-19T01:29:37.864Z,100969.56
2023-02-19T01:32:04.370Z,100964.78
2023-02-19T01:34:33.243Z,100974.66
2023-02-19T01:37:00.075Z,100979.34
2023-02-19T01:39:26.417Z,100985.44
2023-02-19T01:41:52.848Z,100974.16
2023-02-19T01:44:22.166Z,100983.00
2023-02-19T01:46:48.684Z,100966.84
2023-02-19T01:49:21.242Z,100969.38
2023-02-19T01:51:54.273Z,100969.09
2023-02-19T01:54:25.065Z,100949.50
2023-02-19T01:56:52.282Z,100954.00
2023-02-19T01:59:18.936Z,100950.34
2023-02-19T02:01:46.107Z,100953.84
2023-02-19T02:04:13.933Z,100950.31
2023-02-19T02:06:49.593Z,100952.03
2023-02-19T02:09:37.693Z,100937.03
2023-02-19T02:12:04.418Z,100924.44
2023-02-19T02:14:34.922Z,100932.19
2023-02-19T02:17:20.179Z,100928.59
2023-02-19T02:20:10.394Z,100941.63
2023-02-19T02:23:11.963Z,100940.47
2023-02-19T02:25:59.448Z,100946.09
2023-02-19T02:28:36.319Z,100940.63
2023-02-19T02:31:25.033Z,100942.16
2023-02-19T02:34:04.599Z,100940.34
2023-02-19T02:36:38.648Z,100940.19
2023-02-19T02:39:09.107Z,100943.25
2023-02-19T02:41:42.230Z,100942.88
2023-02-19T02:44:08.589Z,100947.34
2023-02-19T02:46:38.743Z,100945.75
2023-02-19T02:49:08.962Z,100942.59
2023-02-19T02:51:43.958Z,100946.53
2023-02-19T02:54:37.415Z,100946.81
2023-02-19T02:57:04.625Z,100944.13
2023-02-19T02:59:35.752Z,100951.22
2023-02-19T03:02:12.320Z,100950.59
2023-02-19T03:05:14.994Z,100942.31
2023-02-19T03:07:55.897Z,100953.13
2023-02-19T03:10:36.108Z,100939.09
2023-02-19T03:13:24.694Z,100952.22
2023-02-19T03:16:15.087Z,100940.81
2023-02-19T03:19:05.030Z,100939.47
2023-02-19T03:21:34.864Z,100944.94
2023-02-19T03:24:21.769Z,100938.91
2023-02-19T03:26:53.841Z,100940.53
2023-02-19T03:29:26.417Z,100946.91
2023-02-19T03:32:00.724Z,100948.81
2023-02-19T03:34:34.760Z,100942.25
2023-02-19T03:37:08.813Z,100941.97
2023-02-19T03:39:44.157Z,100951.34
2023-02-19T03:42:58.953Z,100945.66
2023-02-19T03:45:50.289Z,100951.22
2023-02-19T03:48:25.112Z,100966.69
2023-02-19T03:51:16.271Z,100974.22
2023-02-19T03:54:07.529Z,100971.44
2023-02-19T03:56:42.742Z,100978.00
2023-02-19T03:59:09.096Z,100977.72
2023-02-19T04:01:47.127Z,100987.06
2023-02-19T04:04:21.785Z,100980.16
2023-02-19T04:06:53.870Z,100978.19
2023-02-19T04:09:22.805Z,100986.53
2023-02-19T04:11:51.694Z,100987.28
2023-02-19T04:14:31.054Z,100987.28
2023-02-19T04:17:06.286Z,100995.69
2023-02-19T04:19:36.705Z,101004.06
2023-02-19T04:22:05.738Z,100997.19
2023-02-19T04:24:44.358Z,101007.56
2023-02-19T04:27:11.119Z,101009.34
2023-02-19T04:29:39.184Z,101011.41
2023-02-19T04:32:06.478Z,101002.88
2023-02-19T04:34:33.154Z,101013.66
2023-02-19T04:36:59.481Z,101007.75
2023-02-19T04:39:25.869Z,101021.13
2023-02-19T04:41:52.194Z,101022.00
2023-02-19T04:44:18.598Z,101014.19
2023-02-19T04:46:45.353Z,101024.44
2023-02-19T04:49:11.796Z,101022.22
2023-02-19T04:51:39.038Z,101019.88
2023-02-19T04:54:05.558Z,101026.97
2023-02-19T04:56:32.020Z,101024.69
2023-02-19T04:58:58.425Z,101012.84
2023-02-19T05:01:25.437Z,101035.78
2023-02-19T05:03:52.410Z,101030.09
2023-02-19T05:06:18.935Z,101033.97
2023-02-19T05:08:45.406Z,101038.09
2023-02-19T05:11:12.932Z,101041.91
2023-02-19T05:13:39.851Z,101046.03
2023-02-19T05:16:13.774Z,101045.00
2023-02-19T05:18:41.524Z,101041.31
2023-02-19T05:21:09.266Z,101040.03
2023-02-19T05:23:36.091Z,101048.59
2023-02-19T05:26:12.245Z,101062.53
2023-02-19T05:28:39.098Z,101063.72
2023-02-19T05:31:09.060Z,101052.63
2023-02-19T05:33:37.209Z,101075.47
2023-02-19T05:36:12.293Z,101058.25
2023-02-19T05:38:40.111Z,101066.78
2023-02-19T05:41:14.448Z,101068.81
2023-02-19T05:43:42.353Z,101077.09
2023-02-19T05:46:10.386Z,101074.78
2023-02-19T05:48:37.330Z,101076.56
2023-02-19T05:51:05.882Z,101076.19
2023-02-19T05:53:33.028Z,101077.91
2023-02-19T05:55:59.897Z,101081.97
2023-02-19T05:58:27.492Z,101087.06
2023-02-19T06:00:53.989Z,101095.44
2023-02-19T06:03:21.093Z,101098.69
2023-02-19T06:05:47.732Z,101101.91
2023-02-19T06:08:15.832Z,101108.91
2023-02-19T06:10:42.473Z,101116.81
2023-02-19T06:13:09.875Z,101121.56
2023-02-19T06:15:37.168Z,101116.38
2023-02-19T06:18:04.238Z,101125.72
2023-02-19T06:20:30.615Z,101133.53
2023-02-19T06:22:57.017Z,101135.59
2023-02-19T06:25:23.449Z,101147.69
2023-02-19T06:27:49.874Z,101142.94
2023-02-19T06:30:16.363Z,101141.22
2023-02-19T06:32:42.782Z,101135.53
2023-02-19T06:35:09.191Z,101137.06
2023-02-19T06:37:35.783Z,101147.13
2023-02-19T06:40:02.192Z,101147.47
2023-02-19T06:42:32.535Z,101147.72
2023-02-19T06:44:59.005Z,101149.69
2023-02-19T06:47:25.588Z,101163.63
2023-02-19T06:49:52.033Z,101158.19
2023-02-19T06:52:18.441Z,101155.28
2023-02-19T06:54:44.883Z,101152.16
2023-02-19T06:57:11.295Z,101164.44
2023-02-19T06:59:37.691Z,101165.72
2023-02-19T07:02:04.082Z,101165.16
2023-02-19T07:04:30.464Z,101162.81
2023-02-19T07:06:57.011Z,101171.28
2023-02-19T07:09:25.306Z,101176.97
2023-02-19T07:11:52.298Z,101188.00
2023-02-19T07:14:18.961Z,101191.88
2023-02-19T07:16:47.465Z,101200.16
2023-02-19T07:19:15.106Z,101194.56
2023-02-19T07:21:42.307Z,101196.69
2023-02-19T07:24:10.178Z,101194.81
2023-02-19T07:26:36.716Z,101193.16
2023-02-19T07:29:04.062Z,101204.53
2023-02-19T07:31:30.689Z,101204.53
2023-02-19T07:33:57.347Z,101212.31
2023-02-19T07:36:24.546Z,101227.72
2023-02-19T07:38:57.872Z,101229.47
2023-02-19T07:41:26.124Z,101229.34
2023-02-19T07:43:53.792Z,101233.31
2023-02-19T07:46:21.468Z,101233.06
2023-02-19T07:48:47.852Z,101246.31
2023-02-19T07:51:18.927Z,101248.84
2023-02-19T07:53:46.818Z,101240.75
2023-02-19T07:56:13.901Z,101244.22
2023-02-19T07:58:40.948Z,101246.50
2023-02-19T08:01:18.910Z,101254.66
2023-02-19T08:03:45.962Z,101250.59
2023-02-19T08:06:12.720Z,101265.50
2023-02-19T08:08:39.993Z,101258.38
2023-02-19T08:11:25.202Z,101264.31
2023-02-19T08:13:53.423Z,101273.03
2023-02-19T08:16:33.108Z,101272.31
2023-02-19T08:19:03.794Z,101278.47
2023-02-19T08:21:30.257Z,101286.91
2023-02-19T08:23:56.633Z,101284.59
2023-02-19T08:26:24.259Z,101295.41
2023-02-19T08:28:50.598Z,101294.34
2023-02-19T08:31:17.322Z,101293.34
2023-02-19T08:33:43.753Z,101300.16
2023-02-19T08:36:11.174Z,101310.97
2023-02-19T08:38:38.496Z,101306.94
2023-02-19T08:41:10.602Z,101308.06
2023-02-19T08:43:37.413Z,101310.53
2023-02-19T08:46:04.290Z,101311.44
2023-02-19T08:48:30.952Z,101325.94
2023-02-19T08:50:59.850Z,101325.22
2023-02-19T08:53:26.686Z,101341.59
2023-02-19T08:55:53.482Z,101343.34
2023-02-19T08:58:19.828Z,101341.09
2023-02-19T09:00:46.455Z,101337.38
2023-02-19T09:03:12.976Z,101343.19
2023-02-19T09:05:40.425Z,101342.53
2023-02-19T09:08:06.772Z,101345.50
2023-02-19T09:10:33.309Z,101342.09
2023-02-19T09:13:00.774Z,101352.50
2023-02-19T09:15:28.470Z,101349.91
2023-02-19T09:17:55.167Z,101343.59
2023-02-19T09:20:21.601Z,101335.41
2023-02-19T09:22:48.068Z,101349.69
2023-02-19T09:25:14.742Z,101344.94
2023-02-19T09:27:41.186Z,101343.47
2023-02-19T09:30:08.061Z,101341.41
2023-02-19T09:32:34.431Z,101351.03
2023-02-19T09:35:01.135Z,101352.53
2023-02-19T09:37:28.206Z,101346.88
2023-02-19T09:39:55.024Z,101356.09
2023-02-19T09:42:26.597Z,101350.91
2023-02-19T09:44:55.810Z,101361.28
2023-02-19T09:47:28.300Z,101376.00
2023-02-19T09:49:59.686Z,101383.75
2023-02-19T09:52:34.154Z,101372.06
2023-02-19T09:55:25.926Z,101374.16
2023-02-19T09:57:53.204Z,101373.91
2023-02-19T10:00:23.866Z,101373.38
2023-02-19T10:02:58.438Z,101378.78
2023-02-19T10:05:26.311Z,101386.41
2023-02-19T10:07:54.288Z,101378.97
2023-02-19T10:10:34.881Z,101383.53
2023-02-19T10:13:30.394Z,101402.09
2023-02-19T10:15:58.820Z,101405.16
2023-02-19T10:18:31.058Z,101413.38
2023-02-19T10:20:58.266Z,101410.19
2023-02-19T10:23:25.773Z,101401.84
2023-02-19T10:25:57.412Z,101405.75
2023-02-19T10:28:28.556Z,101397.47
2023-02-19T10:30:58.090Z,101411.13
2023-02-19T10:33:25.623Z,101418.38
2023-02-19T10:36:07.191Z,101404.13
2023-02-19T10:38:37.984Z,101408.47
2023-02-19T10:41:07.983Z,101414.31
2023-02-19T10:43:42.422Z,101420.97
2023-02-19T10:46:23.071Z,101436.66
2023-02-19T10:48:55.620Z,101439.94
2023-02-19T10:51:35.120Z,101418.38
2023-02-19T10:54:36.125Z,101444.78
2023-02-19T10:57:15.144Z,101460.59
2023-02-19T10:59:53.611Z,101456.78
2023-02-19T11:02:21.612Z,101455.41
2023-02-19T11:05:09.110Z,101479.34
2023-02-19T11:07:36.786Z,101490.38
2023-02-19T11:10:05.482Z,101491.09
2023-02-19T11:12:34.622Z,101490.28
2023-02-19T11:15:20.781Z,101481.69
2023-02-19T11:17:58.930Z,101478.50
2023-02-19T11:20:26.229Z,101480.00
2023-02-19T11:22:58.347Z,101483.25
2023-02-19T11:25:25.833Z,101483.69
2023-02-19T11:27:56.549Z,101486.06
2023-02-19T11:30:36.406Z,101487.25
2023-02-19T11:33:33.159Z,101511.44
2023-02-19T11:36:14.848Z,101514.09
2023-02-19T11:38:42.477Z,101515.13
2023-02-19T11:41:18.272Z,101517.38
2023-02-19T11:43:57.236Z,101517.22
2023-02-19T11:46:30.245Z,101508.59
2023-02-19T11:49:21.178Z,101516.09
2023-02-19T11:52:03.384Z,101519.19
2023-02-19T11:54:44.918Z,101509.53
2023-02-19T11:57:52.369Z,101510.44
2023-02-19T12:00:22.143Z,101497.34
2023-02-19T12:03:13.546Z,101502.94
2023-02-19T12:06:15.757Z,101503.59
2023-02-19T12:08:57.718Z,101507.03
2023-02-19T12:11:36.576Z,101508.16
2023-02-19T12:14:08.740Z,101504.81
2023-02-19T12:16:47.713Z,101494.97
2023-02-19T12:19:32.631Z,101500.91
2023-02-19T12:22:09.405Z,101497.16
2023-02-19T12:25:14.301Z,101489.53
2023-02-19T12:28:04.973Z,101491.28
2023-02-19T12:30:40.196Z,101485.53
2023-02-19T12:33:25.573Z,101485.34
2023-02-19T12:35:55.236Z,101486.06
2023-02-19T12:38:33.342Z,101483.75
2023-02-19T12:41:33.822Z,101487.03
2023-02-19T12:44:11.886Z,101489.03
2023-02-19T12:46:49.305Z,101485.06
2023-02-19T12:49:40.325Z,101481.13
2023-02-19T12:52:10.058Z,101489.34
2023-02-19T12:54:44.108Z,101495.63
2023-02-19T12:57:15.592Z,101493.19
2023-02-19T12:59:46.238Z,101504.69
2023-02-19T13:02:22.218Z,101494.34
2023-02-19T13:05:23.736Z,101502.94
2023-02-19T13:08:03.900Z,101496.66
2023-02-19T13:10:44.923Z,101505.31
2023-02-19T13:13:24.034Z,101498.78
2023-02-19T13:15:56.665Z,101500.31
2023-02-19T13:18:28.901Z,101494.00
2023-02-19T13:20:56.346Z,101503.13
2023-02-19T13:23:49.923Z,101502.78
2023-02-19T13:26:31.700Z,101507.31
2023-02-19T13:29:16.706Z,101513.47
2023-02-19T13:32:14.028Z,101513.25
2023-02-19T13:34:59.254Z,101528.81
2023-02-19T13:37:26.675Z,101523.97
2023-02-19T13:39:55.125Z,101526.28
2023-02-19T13:42:32.982Z,101530.44
2023-02-19T13:45:01.161Z,101538.00
2023-02-19T13:47:59.702Z,101522.19
2023-02-19T13:50:31.660Z,101528.38
2023-02-19T13:52:59.894Z,101519.88
2023-02-19T13:55:46.484Z,101515.75
2023-02-19T13:58:34.788Z,101518.97
2023-02-19T14:01:10.516Z,101516.19
2023-02-19T14:03:37.120Z,101521.59
2023-02-19T14:06:06.560Z,101520.19
2023-02-19T14:09:00.228Z,101530.66
2023-02-19T14:11:41.847Z,101512.72
2023-02-19T14:14:43.730Z,101518.72
2023-02-19T14:17:10.118Z,101521.72
2023-02-19T14:19:42.832Z,101524.09
2023-02-19T14:22:46.090Z,101535.53
2023-02-19T14:25:34.868Z,101540.41
2023-02-19T14:28:21.499Z,101554.59
2023-02-19T14:30:54.727Z,101554.25
2023-02-19T14:33:23.630Z,101551.38
2023-02-19T14:35:58.884Z,101557.44
2023-02-19T14:38:27.596Z,101548.22
2023-02-19T14:40:55.420Z,101559.28
2023-02-19T14:43:25.100Z,101569.16
2023-02-19T14:45:56.642Z,101570.69
2023-02-19T14:48:35.202Z,101577.88
2023-02-19T14:51:11.516Z,101576.47
2023-02-19T14:53:43.037Z,101592.94
2023-02-19T14:56:39.312Z,101587.09
2023-02-19T14:59:11.801Z,101585.25
2023-02-19T15:01:39.321Z,101593.63
2023-02-19T15:04:06.551Z,101592.69
2023-02-19T15:06:35.633Z,101593.63
2023-02-19T15:09:05.868Z,101594.09
2023-02-19T15:11:34.461Z,101592.81
2023-02-19T15:14:03.835Z,101606.53
2023-02-19T15:16:32.745Z,101590.59
2023-02-19T15:19:00.063Z,101596.19
2023-02-19T15:21:32.337Z,101616.88
2023-02-19T15:24:04.976Z,101592.94
2023-02-19T15:26:35.935Z,101591.53
2023-02-19T15:29:08.960Z,101582.63
2023-02-19T15:31:36.040Z,101583.44
2023-02-19T15:34:02.691Z,101578.91
2023-02-19T15:36:33.746Z,101575.53
2023-02-19T15:39:02.505Z,101576.25
2023-02-19T15:41:33.633Z,101564.06
2023-02-19T15:44:15.241Z,101558.34
2023-02-19T15:46:44.690Z,101555.78
2023-02-19T15:49:21.954Z,101552.09
2023-02-19T15:52:11.833Z,101545.44
2023-02-19T15:54:52.488Z,101542.31
2023-02-19T15:57:26.253Z,101536.72
2023-02-19T16:00:05.526Z,101533.72
2023-02-19T16:02:33.039Z,101529.06
2023-02-19T16:05:02.098Z,101533.00
2023-02-19T16:07:34.308Z,101529.75
2023-02-19T16:10:19.494Z,101533.00
2023-02-19T16:12:59.416Z,101530.78
2023-02-19T16:15:27.998Z,101531.50
2023-02-19T16:17:54.915Z,101528.34
2023-02-19T16:20:26.119Z,101538.22
2023-02-19T16:22:59.270Z,101543.78
2023-02-19T16:25:40.333Z,101539.81
2023-02-19T16:28:13.583Z,101546.84
2023-02-19T16:30:41.394Z,101555.00
2023-02-19T16:33:38.839Z,101560.56
2023-02-19T16:36:21.732Z,101561.00
2023-02-19T16:39:04.991Z,101548.72
2023-02-19T16:41:31.629Z,101558.44
2023-02-19T16:43:58.212Z,101570.06
2023-02-19T16:46:24.593Z,101575.34
2023-02-19T16:48:51.429Z,101576.66
2023-02-19T16:51:23.549Z,101578.94
2023-02-19T16:53:50.070Z,101583.25
2023-02-19T16:56:18.799Z,101587.91
2023-02-19T16:58:45.294Z,101593.03
2023-02-19T17:01:12.165Z,101591.84
2023-02-19T17:03:39.504Z,101597.97
2023-02-19T17:06:06.009Z,101588.81
2023-02-19T17:08:38.111Z,101598.31
2023-02-19T17:11:10.694Z,101604.81
2023-02-19T17:13:37.503Z,101617.69
2023-02-19T17:16:04.595Z,101613.91
2023-02-19T17:18:31.042Z,101619.25
2023-02-19T17:21:10.896Z,101631.94
2023-02-19T17:23:37.930Z,101646.53
2023-02-19T17:26:04.527Z,101656.78
2023-02-19T17:28:30.933Z,101649.84
2023-02-19T17:30:57.372Z,101663.56
2023-02-19T17:33:23.785Z,101671.16
2023-02-19T17:35:50.228Z,101689.84
2023-02-19T17:38:16.837Z,101691.69
2023-02-19T17:40:44.981Z,101702.66
2023-02-19T17:43:11.347Z,101698.41
2023-02-19T17:45:38.303Z,101695.13
2023-02-19T17:48:04.988Z,101707.28
2023-02-19T17:50:32.353Z,101702.03
2023-02-19T17:52:59.157Z,101707.91
2023-02-19T17:55:25.921Z,101711.50
2023-02-19T17:57:53.186Z,101710.88
2023-02-19T18:00:26.569Z,101710.69
2023-02-19T18:02:54.222Z,101707.91
2023-02-19T18:05:21.070Z,101704.75
2023-02-19T18:07:48.430Z,101706.41
2023-02-19T18:10:19.557Z,101707.53
2023-02-19T18:12:46.048Z,101716.72
2023-02-19T18:15:30.601Z,101722.13
2023-02-19T18:17:58.224Z,101728.03
2023-02-19T18:20:28.974Z,101727.03
2023-02-19T18:22:56.596Z,101730.28
2023-02-19T18:25:24.164Z,101724.59
2023-02-19T18:27:51.105Z,101716.25
2023-02-19T18:30:19.320Z,101723.28
2023-02-19T18:32:49.857Z,101719.03
2023-02-19T18:35:17.831Z,101725.97
2023-02-19T18:37:45.004Z,101722.00
2023-02-19T18:40:12.167Z,101714.34
2023-02-19T18:42:39.640Z,101724.31
2023-02-19T18:45:06.559Z,101731.16
2023-02-19T18:47:32.948Z,101735.59
2023-02-19T18:49:59.812Z,101737.09
2023-02-19T18:52:27.258Z,101736.25
2023-02-19T18:54:55.303Z,101744.88
2023-02-19T18:57:23.497Z,101740.81
2023-02-19T18:59:50.510Z,101743.28
2023-02-19T19:02:17.265Z,101750.66
2023-02-19T19:04:48.120Z,101737.09
2023-02-19T19:07:14.674Z,101732.84
2023-02-19T19:09:41.034Z,101733.53
2023-02-19T19:12:07.508Z,101735.00
2023-02-19T19:14:34.497Z,101743.31
2023-02-19T19:17:00.990Z,101740.22
2023-02-19T19:19:27.464Z,101745.78
2023-02-19T19:21:54.733Z,101748.38
2023-02-19T19:24:22.368Z,101753.59
2023-02-19T19:26:50.604Z,101758.38
2023-02-19T19:29:20.357Z,101757.91
2023-02-19T19:31:46.960Z,101758.38
2023-02-19T19:34:13.993Z,101757.72
2023-02-19T19:36:40.389Z,101758.88
2023-02-19T19:39:07.165Z,101764.94
2023-02-19T19:41:33.651Z,101763.28
2023-02-19T19:44:06.300Z,101764.28
2023-02-19T19:46:33.751Z,101760.84
2023-02-19T19:49:00.541Z,101767.59
2023-02-19T19:51:34.128Z,101763.16
2023-02-19T19:54:01.856Z,101768.91
2023-02-19T19:56:28.292Z,101773.63
2023-02-19T19:58:54.708Z,101786.22
2023-02-19T20:01:22.872Z,101783.09
2023-02-19T20:03:51.038Z,101792.56
2023-02-19T20:06:28.488Z,101777.53
2023-02-19T20:08:55.080Z,101783.91
2023-02-19T20:11:21.529Z,101779.16
2023-02-19T20:13:48.154Z,101785.69
2023-02-19T20:16:14.754Z,101784.09
2023-02-19T20:18:41.980Z,101782.63
2023-02-19T20:21:10.460Z,101785.88
2023-02-19T20:23:40.334Z,101779.84
2023-02-19T20:26:06.871Z,101777.88
2023-02-19T20:28:34.104Z,101775.41
2023-02-19T20:31:00.654Z,101782.78
2023-02-19T20:33:27.153Z,101784.25
2023-02-19T20:35:53.649Z,101777.06
2023-02-19T20:38:20.097Z,101787.34
2023-02-19T20:40:46.672Z,101792.09
2023-02-19T20:43:13.053Z,101801.09
2023-02-19T20:45:40.904Z,101801.75
2023-02-19T20:48:07.409Z,101806.00
2023-02-19T20:50:33.824Z,101793.38
2023-02-19T20:53:00.269Z,101792.25
2023-02-19T20:55:26.762Z,101795.38
2023-02-19T20:57:53.128Z,101795.72
2023-02-19T21:00:20.132Z,101803.56
2023-02-19T21:02:46.880Z,101797.84
2023-02-19T21:05:13.493Z,101807.97
2023-02-19T21:07:39.951Z,101813.69
2023-02-19T21:10:07.424Z,101807.16
2023-02-19T21:12:33.817Z,101818.25
2023-02-19T21:15:00.337Z,101815.97
2023-02-19T21:17:26.747Z,101803.56
2023-02-19T21:19:53.257Z,101806.66
2023-02-19T21:22:19.743Z,101810.41
2023-02-19T21:24:49.510Z,101818.94
2023-02-19T21:27:16.103Z,101828.22
2023-02-19T21:29:42.574Z,101830.38
2023-02-19T21:32:09.145Z,101832.81
2023-02-19T21:34:35.598Z,101830.53
2023-02-19T21:37:02.162Z,101828.56
2023-02-19T21:39:30.422Z,101834.44
2023-02-19T21:41:58.608Z,101838.38
2023-02-19T21:44:26.051Z,101847.66
2023-02-19T21:46:52.479Z,101855.84
2023-02-19T21:49:18.897Z,101848.84
2023-02-19T21:51:47.810Z,101847.03
2023-02-19T21:54:17.418Z,101846.69
2023-02-19T21:56:44.246Z,101849.97
2023-02-19T21:59:10.927Z,101843.28
2023-02-19T22:01:42.071Z,101843.09
2023-02-19T22:04:11.011Z,101846.84
2023-02-19T22:06:39.442Z,101840.81
2023-02-19T22:09:07.677Z,101841.97
2023-02-19T22:11:34.188Z,101849.63
2023-02-19T22:14:01.047Z,101849.47
2023-02-19T22:16:28.667Z,101854.06
2023-02-19T22:18:57.536Z,101846.19
2023-02-19T22:21:26.812Z,101848.81
2023-02-19T22:23:54.277Z,101857.25
2023-02-19T22:26:29.050Z,101847.78
2023-02-19T22:28:55.522Z,101850.88
2023-02-19T22:31:24.550Z,101842.91
2023-02-19T22:33:51.568Z,101846.97
2023-02-19T22:36:21.170Z,101837.66
2023-02-19T22:38:48.167Z,101847.31
2023-02-19T22:41:15.993Z,101846.34
2023-02-19T22:43:42.386Z,101840.78
2023-02-19T22:46:19.975Z,101834.19
2023-02-19T22:48:46.768Z,101837.66
2023-02-19T22:51:15.729Z,101843.28
2023-02-19T22:53:46.836Z,101843.75
2023-02-19T22:56:14.871Z,101844.97
2023-02-19T22:58:42.000Z,101851.00
2023-02-19T23:01:10.115Z,101854.91
2023-02-19T23:03:54.884Z,101847.91
2023-02-19T23:06:30.173Z,101846.56
2023-02-19T23:08:58.375Z,101844.41
2023-02-19T23:11:30.883Z,101847.31
2023-02-19T23:13:58.261Z,101834.06
2023-02-19T23:16:25.433Z,101838.53
2023-02-19T23:18:51.994Z,101828.97
2023-02-19T23:21:18.768Z,101824.44
2023-02-19T23:23:46.371Z,101816.41
2023-02-19T23:26:14.265Z,101816.50
2023-02-19T23:28:42.493Z,101812.84
2023-02-19T23:31:10.105Z,101805.59
2023-02-19T23:33:36.691Z,101803.63
2023-02-19T23:36:03.368Z,101807.16
2023-02-19T23:38:29.799Z,101820.41
2023-02-19T23:40:56.198Z,101821.53
2023-02-19T23:43:23.121Z,101815.59
2023-02-19T23:45:49.666Z,101820.78
2023-02-19T23:48:16.101Z,101818.59
2023-02-19T23:50:42.907Z,101815.75
2023-02-19T23:53:09.391Z,101808.19
2023-02-19T23:55:35.785Z,101800.09
2023-02-19T23:58:02.292Z,101805.84
